Time;durP1;ratioP1;P1;durP2;ratioP2;P2;SDS_P1;SDS_P2;PMS_P1;PMS_P2;Temp;Humidity;BMP_temperature;BMP_pressure;BME280_temperature;BME280_humidity;BME280_pressure;Samples;Min_cycle;Max_cycle;Signal;HPM_P1;HPM_P2
2023/08/17 00:01:23;;;;;;;11.13;5.43;;;21.50;99.90;;;;;;5047783;28;20412;-72
2023/08/17 00:03:48;;;;;;;10.40;5.10;;;21.60;99.90;;;;;;5037661;28;20909;-72
2023/08/17 00:06:14;;;;;;;13.80;5.30;;;21.50;99.90;;;;;;5047790;28;20401;-72
2023/08/17 00:08:40;;;;;;;12.10;4.97;;;21.50;99.90;;;;;;5047806;28;21038;-72
2023/08/17 00:11:05;;;;;;;12.27;5.97;;;21.60;99.90;;;;;;5048424;28;20416;-73
2023/08/17 00:13:31;;;;;;;12.43;5.50;;;21.60;99.90;;;;;;5048706;28;20381;-72
2023/08/17 00:15:56;;;;;;;10.10;4.90;;;21.60;99.90;;;;;;5047535;28;20389;-72
2023/08/17 00:18:22;;;;;;;10.23;5.60;;;21.50;99.90;;;;;;5048051;28;20450;-72
2023/08/17 00:20:48;;;;;;;11.00;5.57;;;21.40;99.90;;;;;;5047575;28;20397;-72
2023/08/17 00:23:13;;;;;;;10.60;5.50;;;21.30;99.90;;;;;;5047720;28;20401;-72
2023/08/17 00:25:39;;;;;;;11.80;5.53;;;21.30;99.90;;;;;;5047748;28;20447;-72
2023/08/17 00:28:06;;;;;;;12.05;5.55;;;21.20;99.90;;;;;;5047028;28;21319;-72
2023/08/17 00:30:35;;;;;;;11.40;6.10;;;21.10;99.90;;;;;;5047790;28;20492;-72
2023/08/17 00:33:02;;;;;;;12.50;6.50;;;21.00;99.90;;;;;;5048377;28;20381;-72
2023/08/17 00:35:27;;;;;;;11.75;5.70;;;21.00;99.90;;;;;;5048109;28;20393;-72
2023/08/17 00:37:53;;;;;;;16.80;6.67;;;21.10;99.90;;;;;;5048051;28;20416;-72
2023/08/17 00:40:18;;;;;;;11.90;6.17;;;21.20;99.90;;;;;;5047344;28;20389;-72
2023/08/17 00:42:44;;;;;;;11.50;5.57;;;21.20;99.90;;;;;;5045094;28;20965;-72
2023/08/17 00:45:10;;;;;;;11.65;5.80;;;21.10;99.90;;;;;;5047553;28;20797;-72
2023/08/17 00:47:36;;;;;;;10.90;5.40;;;21.20;99.90;;;;;;5046987;28;20413;-72
2023/08/17 00:50:02;;;;;;;12.70;6.15;;;21.20;99.90;;;;;;5048485;28;20382;-72
2023/08/17 00:52:28;;;;;;;13.80;5.90;;;21.20;99.90;;;;;;5048651;28;20866;-72
2023/08/17 00:54:56;;;;;;;10.10;5.50;;;21.20;99.90;;;;;;5048083;28;20434;-72
2023/08/17 00:57:22;;;;;;;15.75;6.70;;;21.10;99.90;;;;;;5048206;28;20480;-72
2023/08/17 00:59:48;;;;;;;11.18;5.57;;;21.20;99.90;;;;;;5047649;28;20466;-72
2023/08/17 01:02:14;;;;;;;13.63;6.13;;;21.20;99.90;;;;;;5048087;28;20810;-72
2023/08/17 01:04:39;;;;;;;12.37;5.50;;;21.20;99.90;;;;;;5049786;28;20428;-72
2023/08/17 01:07:05;;;;;;;12.20;5.40;;;21.30;99.90;;;;;;5047742;28;20436;-72
2023/08/17 01:09:30;;;;;;;13.47;5.43;;;21.40;99.90;;;;;;5048864;28;20415;-72
2023/08/17 01:12:19;;;;;;;10.90;5.93;;;21.40;99.90;;;;;;5047534;28;20890;-72
2023/08/17 01:15:14;;;;;;;12.20;5.20;;;21.30;99.90;;;;;;5047852;28;20928;-72
2023/08/17 01:17:46;;;;;;;10.18;5.10;;;21.40;99.90;;;;;;5047183;28;20425;-72
2023/08/17 01:20:13;;;;;;;10.10;4.65;;;21.40;99.90;;;;;;5049031;28;20433;-72
2023/08/17 01:22:42;;;;;;;11.55;5.00;;;21.50;99.90;;;;;;5050654;28;20377;-72
2023/08/17 01:25:08;;;;;;;11.88;4.90;;;21.60;99.90;;;;;;5051381;28;20393;-73
2023/08/17 01:27:45;;;;;;;9.05;4.28;;;21.50;99.90;;;;;;5052181;28;20429;-73
2023/08/17 01:30:14;;;;;;;9.02;3.72;;;21.50;99.90;;;;;;5051209;28;21053;-72
2023/08/17 01:32:53;;;;;;;8.73;3.85;;;21.60;99.90;;;;;;5051068;28;20402;-73
2023/08/17 01:35:22;;;;;;;10.30;4.10;;;21.50;99.90;;;;;;5050771;28;20424;-72
2023/08/17 01:37:50;;;;;;;12.70;4.93;;;21.50;99.90;;;;;;5050699;28;20469;-72
2023/08/17 01:40:17;;;;;;;10.38;3.83;;;21.60;99.90;;;;;;5050871;28;20800;-72
2023/08/17 01:42:43;;;;;;;9.57;4.00;;;21.50;99.90;;;;;;5050291;28;20439;-73
2023/08/17 01:45:09;;;;;;;12.40;4.50;;;21.50;99.90;;;;;;5050673;28;20472;-73
2023/08/17 01:47:35;;;;;;;8.18;3.75;;;21.50;99.90;;;;;;5049672;28;20432;-73
2023/08/17 01:50:01;;;;;;;10.93;4.53;;;21.50;99.90;;;;;;5051871;28;20385;-73
2023/08/17 01:52:29;;;;;;;9.33;3.60;;;21.50;99.90;;;;;;5050607;28;20419;-72
2023/08/17 01:54:55;;;;;;;10.10;3.50;;;21.40;99.90;;;;;;5051688;28;20381;-73
2023/08/17 01:57:20;;;;;;;8.10;3.72;;;21.40;99.90;;;;;;5051407;28;20392;-73
2023/08/17 01:59:46;;;;;;;8.27;4.07;;;21.50;99.90;;;;;;5050356;28;20409;-73
2023/08/17 02:02:14;;;;;;;11.70;4.45;;;21.50;99.90;;;;;;5050696;28;20790;-73
2023/08/17 02:04:40;;;;;;;8.63;3.70;;;21.50;99.90;;;;;;5050498;28;20394;-73
2023/08/17 02:07:05;;;;;;;8.70;3.92;;;21.50;99.90;;;;;;5049892;28;20422;-73
2023/08/17 02:09:31;;;;;;;9.13;4.38;;;21.60;99.90;;;;;;5050878;28;20390;-73
2023/08/17 02:11:56;;;;;;;10.80;4.10;;;21.70;90.70;;;;;;5050495;28;20397;-72
2023/08/17 02:14:22;;;;;;;8.93;4.00;;;21.50;99.90;;;;;;5050647;28;20401;-73
2023/08/17 02:16:47;;;;;;;10.45;4.75;;;21.40;99.90;;;;;;5048793;28;20401;-72
2023/08/17 02:19:13;;;;;;;9.70;4.90;;;21.30;99.90;;;;;;5050137;28;20940;-73
2023/08/17 02:21:38;;;;;;;10.83;4.80;;;21.30;99.90;;;;;;5049762;28;20433;-73
2023/08/17 02:24:04;;;;;;;10.93;4.93;;;21.40;99.90;;;;;;5051040;28;20892;-73
2023/08/17 02:26:30;;;;;;;9.77;4.30;;;21.40;99.90;;;;;;5050241;28;20837;-72
2023/08/17 02:28:56;;;;;;;12.52;4.70;;;21.40;99.90;;;;;;5049593;28;20381;-73
2023/08/17 02:31:21;;;;;;;11.45;4.55;;;21.40;99.90;;;;;;5048971;28;20489;-73
2023/08/17 02:33:47;;;;;;;8.90;4.07;;;21.40;99.90;;;;;;5049730;28;20462;-73
2023/08/17 02:36:13;;;;;;;8.25;4.28;;;21.40;99.90;;;;;;5049791;28;21267;-73
2023/08/17 02:38:38;;;;;;;9.57;4.03;;;21.40;99.90;;;;;;5050091;28;20784;-73
2023/08/17 02:41:04;;;;;;;11.30;4.27;;;21.60;99.90;;;;;;5049898;28;20416;-72
2023/08/17 02:43:29;;;;;;;9.10;4.00;;;21.50;99.90;;;;;;5049447;28;20405;-72
2023/08/17 02:45:55;;;;;;;10.27;4.17;;;21.50;99.90;;;;;;5049296;28;20401;-73
2023/08/17 02:48:20;;;;;;;8.67;4.03;;;21.60;99.90;;;;;;5049523;28;20856;-73
2023/08/17 02:50:46;;;;;;;11.33;4.70;;;21.60;99.90;;;;;;5049605;28;20402;-73
2023/08/17 02:53:11;;;;;;;10.33;4.20;;;21.60;99.90;;;;;;5049056;28;20472;-73
2023/08/17 02:55:37;;;;;;;9.43;4.43;;;21.70;99.90;;;;;;5049646;28;20378;-73
2023/08/17 02:58:02;;;;;;;9.43;3.70;;;21.70;99.90;;;;;;5049891;28;20749;-73
2023/08/17 03:00:28;;;;;;;9.57;4.55;;;21.80;99.90;;;;;;5049066;28;20389;-73
2023/08/17 03:02:54;;;;;;;9.60;4.63;;;21.90;46.50;;;;;;5049054;28;20393;-73
2023/08/17 03:05:19;;;;;;;10.48;4.70;;;21.90;31.80;;;;;;5049134;28;20460;-73
2023/08/17 03:07:45;;;;;;;9.73;4.43;;;21.80;43.60;;;;;;5049389;28;20421;-73
2023/08/17 03:10:10;;;;;;;10.70;4.50;;;21.80;59.50;;;;;;5048552;28;20784;-73
2023/08/17 03:12:37;;;;;;;11.83;4.70;;;21.70;77.00;;;;;;5049117;28;20417;-73
2023/08/17 03:15:06;;;;;;;9.35;4.07;;;21.70;80.60;;;;;;5049910;28;20397;-73
2023/08/17 03:17:32;;;;;;;10.63;4.22;;;21.80;95.40;;;;;;5049322;28;20381;-73
2023/08/17 03:19:59;;;;;;;10.10;4.43;;;21.80;79.90;;;;;;5049063;28;20443;-73
2023/08/17 03:22:25;;;;;;;13.90;5.20;;;21.90;66.40;;;;;;5048427;28;20431;-73
2023/08/17 03:24:51;;;;;;;12.82;4.00;;;21.80;60.20;;;;;;5048748;28;20830;-73
2023/08/17 03:27:17;;;;;;;9.63;4.25;;;21.60;99.10;;;;;;5048247;28;20453;-73
2023/08/17 03:29:42;;;;;;;11.88;4.90;;;21.60;98.00;;;;;;5047956;28;20452;-72
2023/08/17 03:32:08;;;;;;;13.45;5.20;;;21.50;99.90;;;;;;5044070;28;20898;-72
2023/08/17 03:34:33;;;;;;;11.80;5.38;;;21.40;99.90;;;;;;5046978;28;20381;-73
2023/08/17 03:36:59;;;;;;;10.90;4.90;;;21.30;99.90;;;;;;5047913;28;20429;-73
2023/08/17 03:39:24;;;;;;;11.43;5.50;;;21.20;99.90;;;;;;5048631;28;20981;-73
2023/08/17 03:41:50;;;;;;;12.80;5.47;;;21.20;99.90;;;;;;5046984;28;20393;-73
2023/08/17 03:44:16;;;;;;;11.47;5.70;;;21.20;99.90;;;;;;5047316;28;20398;-72
2023/08/17 03:46:41;;;;;;;14.30;5.43;;;21.30;99.90;;;;;;5047538;28;20389;-72
2023/08/17 03:49:07;;;;;;;15.17;5.63;;;21.40;99.90;;;;;;5047329;28;20393;-72
2023/08/17 03:51:32;;;;;;;12.50;5.50;;;21.50;99.90;;;;;;5048187;28;20386;-72
2023/08/17 03:53:58;;;;;;;11.40;4.63;;;21.50;99.90;;;;;;5047460;28;20393;-72
2023/08/17 03:56:23;;;;;;;12.20;5.70;;;21.50;99.90;;;;;;5047020;28;20397;-72
2023/08/17 03:58:50;;;;;;;11.00;5.40;;;21.60;99.90;;;;;;5047369;28;20491;-72
2023/08/17 04:01:15;;;;;;;13.00;5.50;;;21.60;99.90;;;;;;5047063;28;20389;-72
2023/08/17 04:03:41;;;;;;;15.93;6.30;;;21.60;99.90;;;;;;5047162;28;20948;-72
2023/08/17 04:06:09;;;;;;;14.13;6.17;;;21.60;99.90;;;;;;5046942;28;20386;-72
2023/08/17 04:08:36;;;;;;;17.20;6.10;;;21.50;99.90;;;;;;5047454;28;20429;-73
2023/08/17 04:11:01;;;;;;;14.90;6.05;;;21.50;99.90;;;;;;5047642;28;20405;-72
2023/08/17 04:13:27;;;;;;;16.67;6.80;;;21.50;99.90;;;;;;5046780;28;20933;-73
2023/08/17 04:15:52;;;;;;;14.30;7.23;;;21.50;99.90;;;;;;5047325;28;20408;-72
2023/08/17 04:18:18;;;;;;;15.53;7.60;;;21.50;99.90;;;;;;5046959;28;20394;-73
2023/08/17 04:20:43;;;;;;;15.57;7.13;;;21.40;99.90;;;;;;5046762;28;20393;-72
2023/08/17 04:23:09;;;;;;;15.87;7.40;;;21.40;99.90;;;;;;5046751;28;20515;-73
2023/08/17 04:25:34;;;;;;;17.43;6.47;;;21.40;99.90;;;;;;5045817;28;20900;-73
2023/08/17 04:28:01;;;;;;;13.50;6.40;;;21.40;99.90;;;;;;5046819;28;20424;-73
2023/08/17 04:30:27;;;;;;;16.95;6.88;;;21.40;99.90;;;;;;5046654;28;20433;-73
2023/08/17 04:32:52;;;;;;;15.70;6.50;;;21.40;99.90;;;;;;5045120;28;20436;-73
2023/08/17 04:35:21;;;;;;;17.03;6.43;;;21.30;99.90;;;;;;5046805;28;20890;-73
2023/08/17 04:37:47;;;;;;;16.85;6.90;;;21.40;99.90;;;;;;5046964;28;20402;-73
2023/08/17 04:40:13;;;;;;;18.70;8.17;;;21.40;99.90;;;;;;5047126;28;20447;-73
2023/08/17 04:42:39;;;;;;;14.23;6.60;;;21.40;99.90;;;;;;5046977;28;20519;-73
2023/08/17 04:45:05;;;;;;;20.07;7.47;;;21.50;99.90;;;;;;5047525;28;20945;-73
2023/08/17 04:47:31;;;;;;;20.13;6.80;;;21.60;99.90;;;;;;5047280;28;20829;-73
2023/08/17 04:49:56;;;;;;;16.83;6.90;;;21.60;99.90;;;;;;5046628;28;20420;-73
2023/08/17 04:52:22;;;;;;;16.30;6.77;;;21.60;99.90;;;;;;5046733;28;20419;-73
2023/08/17 04:54:47;;;;;;;17.13;7.20;;;21.70;99.90;;;;;;5046937;28;20401;-73
2023/08/17 04:57:13;;;;;;;15.20;6.77;;;21.90;99.90;;;;;;5050994;28;20385;-73
2023/08/17 04:59:38;;;;;;;18.87;7.47;;;22.00;99.90;;;;;;5050891;28;20396;-73
2023/08/17 05:02:04;;;;;;;15.55;7.35;;;22.10;99.90;;;;;;5051393;28;20388;-73
2023/08/17 05:04:30;;;;;;;19.13;6.57;;;22.20;99.90;;;;;;5050574;28;20885;-73
2023/08/17 05:06:56;;;;;;;13.27;6.78;;;22.10;96.30;;;;;;5051143;28;20478;-73
2023/08/17 05:09:22;;;;;;;15.33;7.40;;;22.10;99.90;;;;;;5050424;28;20885;-73
2023/08/17 05:11:47;;;;;;;17.50;7.60;;;22.20;99.50;;;;;;5049310;28;20977;-73
2023/08/17 05:14:13;;;;;;;16.07;7.30;;;22.20;89.10;;;;;;5049381;28;20401;-73
2023/08/17 05:16:38;;;;;;;19.13;6.70;;;22.10;87.70;;;;;;5044539;28;20396;-73
2023/08/17 05:19:04;;;;;;;16.20;6.80;;;22.10;96.90;;;;;;5050760;28;20385;-73
2023/08/17 05:21:29;;;;;;;16.50;6.60;;;22.10;99.90;;;;;;5050828;28;20425;-73
2023/08/17 05:23:55;;;;;;;17.17;7.57;;;22.20;81.00;;;;;;5050673;28;20385;-73
2023/08/17 05:26:22;;;;;;;18.50;6.50;;;22.20;99.90;;;;;;5050372;28;20401;-73
2023/08/17 05:28:48;;;;;;;15.00;6.80;;;22.30;94.00;;;;;;5050611;28;20420;-73
2023/08/17 05:31:13;;;;;;;13.27;6.20;;;22.30;97.00;;;;;;5048619;28;20531;-73
2023/08/17 05:33:40;;;;;;;18.03;6.87;;;22.30;99.90;;;;;;5050125;28;20483;-73
2023/08/17 05:36:06;;;;;;;19.20;7.67;;;22.30;79.60;;;;;;5050277;28;20377;-73
2023/08/17 05:38:32;;;;;;;16.40;7.10;;;22.40;84.40;;;;;;5050473;28;20763;-73
2023/08/17 05:40:59;;;;;;;17.83;7.47;;;22.40;6.20;;;;;;5050532;28;20514;-73
2023/08/17 05:43:25;;;;;;;17.00;6.90;;;22.50;33.70;;;;;;5050036;28;20804;-73
2023/08/17 05:45:51;;;;;;;15.40;7.57;;;22.60;15.80;;;;;;5050339;28;20403;-73
2023/08/17 05:48:21;;;;;;;17.50;7.80;;;22.70;9.30;;;;;;5049694;28;20488;-73
2023/08/17 05:50:47;;;;;;;17.05;7.40;;;22.90;1.00;;;;;;5048617;28;20401;-71
2023/08/17 05:53:13;;;;;;;14.57;7.32;;;22.90;1.00;;;;;;5049522;28;20458;-71
2023/08/17 05:55:38;;;;;;;14.40;6.93;;;23.00;1.00;;;;;;5049870;28;20925;-70
2023/08/17 05:58:04;;;;;;;16.27;7.13;;;23.20;1.00;;;;;;5050576;28;20451;-70
2023/08/17 06:00:29;;;;;;;17.53;6.70;;;23.30;1.00;;;;;;5049720;28;20406;-70
2023/08/17 06:03:00;;;;;;;17.53;7.40;;;23.40;1.00;;;;;;5049749;28;20401;-74
2023/08/17 06:05:30;;;;;;;14.73;7.13;;;23.50;1.00;;;;;;5040726;28;20468;-73
2023/08/17 06:07:59;;;;;;;17.37;7.00;;;23.60;1.00;;;;;;5041468;28;20422;-74
2023/08/17 06:10:25;;;;;;;15.20;6.75;;;23.60;1.00;;;;;;5042177;28;20397;-74
2023/08/17 06:12:55;;;;;;;15.77;7.30;;;23.60;1.00;;;;;;5041917;28;20544;-74
2023/08/17 06:15:22;;;;;;;15.57;6.87;;;23.60;1.00;;;;;;5036028;28;20421;-74
2023/08/17 06:17:49;;;;;;;14.20;7.53;;;23.60;1.00;;;;;;5040171;28;20422;-74
2023/08/17 06:20:16;;;;;;;15.07;7.10;;;23.60;1.00;;;;;;5036449;28;20418;-74
2023/08/17 06:22:42;;;;;;;15.65;7.38;;;23.60;1.00;;;;;;5036728;28;20411;-74
2023/08/17 06:25:08;;;;;;;13.57;6.90;;;23.70;1.00;;;;;;5043088;28;20433;-74
2023/08/17 06:27:34;;;;;;;16.15;7.45;;;23.80;1.00;;;;;;5029790;28;20998;-73
2023/08/17 06:30:00;;;;;;;13.15;6.57;;;23.80;1.00;;;;;;5047878;28;20461;-73
2023/08/17 06:32:26;;;;;;;16.13;6.47;;;23.70;99.90;;;;;;5036353;28;20472;-73
2023/08/17 06:34:54;;;;;;;15.27;7.00;;;23.70;1.00;;;;;;5037701;28;20459;-74
2023/08/17 06:37:19;;;;;;;13.77;7.10;;;23.70;99.90;;;;;;5034778;28;20981;-75
2023/08/17 06:39:45;;;;;;;14.10;7.13;;;23.80;1.00;;;;;;5038878;28;20409;-75
2023/08/17 06:42:10;;;;;;;15.67;7.53;;;24.00;99.90;;;;;;5038062;28;20458;-75
2023/08/17 06:44:36;;;;;;;14.83;8.00;;;24.30;99.90;;;;;;5040081;28;20443;-75
2023/08/17 06:47:01;;;;;;;15.37;7.90;;;24.40;70.00;;;;;;5030636;28;20451;-74
2023/08/17 06:49:27;;;;;;;11.80;6.70;;;24.50;1.00;;;;;;5038187;28;20406;-75
2023/08/17 06:51:53;;;;;;;16.17;7.93;;;24.40;1.00;;;;;;5041034;28;20431;-75
2023/08/17 06:54:18;;;;;;;15.02;7.60;;;24.60;1.00;;;;;;5049105;28;20408;-75
2023/08/17 06:56:44;;;;;;;15.63;7.28;;;24.60;1.00;;;;;;5048905;28;20739;-75
2023/08/17 06:59:09;;;;;;;14.13;7.17;;;24.80;1.00;;;;;;5046461;28;20449;-75
2023/08/17 07:01:35;;;;;;;13.93;7.20;;;24.90;99.90;;;;;;5047878;28;20806;-74
2023/08/17 07:04:00;;;;;;;20.30;7.53;;;24.90;99.90;;;;;;5049453;28;20381;-75
2023/08/17 07:06:26;;;;;;;16.70;8.30;;;24.90;99.90;;;;;;5048714;28;20394;-75
2023/08/17 07:08:52;;;;;;;18.60;8.03;;;25.00;99.90;;;;;;5048765;28;20467;-75
2023/08/17 07:11:18;;;;;;;15.50;7.20;;;24.70;99.90;;;;;;5049157;28;20421;-75
2023/08/17 07:13:44;;;;;;;16.70;8.40;;;24.70;99.90;;;;;;5046546;28;20393;-75
2023/08/17 07:16:09;;;;;;;17.57;7.87;;;24.50;1.00;;;;;;5035666;28;20382;-75
2023/08/17 07:18:35;;;;;;;18.87;8.17;;;24.40;99.90;;;;;;5047594;28;20524;-74
2023/08/17 07:21:01;;;;;;;17.92;8.48;;;24.50;41.20;;;;;;5039792;28;20660;-74
2023/08/17 07:23:26;;;;;;;16.73;7.72;;;24.60;1.00;;;;;;5038633;28;20460;-74
2023/08/17 07:25:52;;;;;;;18.13;8.27;;;24.60;1.00;;;;;;5048227;28;20393;-73
2023/08/17 07:28:18;;;;;;;17.05;7.95;;;24.60;1.00;;;;;;5047755;28;20468;-74
2023/08/17 07:30:44;;;;;;;16.02;7.15;;;24.70;1.00;;;;;;5031923;28;20821;-74
2023/08/17 07:33:09;;;;;;;16.10;8.40;;;24.80;1.00;;;;;;5048128;28;20409;-74
2023/08/17 07:35:35;;;;;;;15.87;8.17;;;25.00;1.00;;;;;;5047679;28;20540;-73
2023/08/17 07:38:00;;;;;;;15.50;8.03;;;25.30;99.90;;;;;;5048900;28;20385;-74
2023/08/17 07:40:26;;;;;;;16.30;7.30;;;25.40;1.00;;;;;;5048070;28;20884;-74
2023/08/17 07:42:52;;;;;;;18.13;7.83;;;25.40;99.90;;;;;;5048307;28;20844;-73
2023/08/17 07:45:17;;;;;;;14.73;7.27;;;25.70;99.90;;;;;;5047981;28;20385;-74
2023/08/17 07:47:43;;;;;;;17.20;8.00;;;26.10;1.00;;;;;;5047496;28;20421;-76
2023/08/17 07:50:09;;;;;;;14.57;7.57;;;26.40;1.00;;;;;;5033544;28;20991;-76
2023/08/17 07:52:34;;;;;;;16.80;8.67;;;26.20;1.00;;;;;;5033343;28;20461;-76
2023/08/17 07:55:00;;;;;;;16.53;7.70;;;26.20;99.90;;;;;;5042410;28;20897;-76
2023/08/17 07:57:25;;;;;;;14.37;7.30;;;26.20;1.00;;;;;;5040791;28;20842;-76
2023/08/17 07:59:51;;;;;;;17.93;7.10;;;26.50;99.90;;;;;;5046137;28;20413;-77
2023/08/17 08:02:17;;;;;;;16.23;7.72;;;26.60;99.90;;;;;;5040426;28;20424;-76
2023/08/17 08:04:43;;;;;;;15.00;8.63;;;26.70;99.90;;;;;;5044752;28;20418;-76
2023/08/17 08:07:09;;;;;;;15.00;7.60;;;26.70;99.90;;;;;;5031888;28;21285;-76
2023/08/17 08:09:35;;;;;;;15.35;7.90;;;26.60;99.90;;;;;;5045435;28;20409;-76
2023/08/17 08:12:00;;;;;;;15.43;7.63;;;26.90;99.90;;;;;;5040403;28;20413;-76
2023/08/17 08:14:26;;;;;;;12.50;7.10;;;27.40;1.00;;;;;;5046938;28;20389;-77
2023/08/17 08:16:51;;;;;;;15.63;7.90;;;28.40;99.90;;;;;;5040152;28;20401;-74
2023/08/17 08:19:17;;;;;;;15.80;8.10;;;29.00;99.90;;;;;;5034595;28;20504;-74
2023/08/17 08:21:42;;;;;;;15.20;7.37;;;29.80;8.80;;;;;;5034405;28;20410;-75
2023/08/17 08:24:08;;;;;;;14.63;6.80;;;31.00;1.00;;;;;;5027843;28;20395;-75
2023/08/17 08:26:33;;;;;;;15.10;6.85;;;31.90;1.00;;;;;;5043344;28;20397;-79
2023/08/17 08:29:00;;;;;;;12.63;7.00;;;32.80;1.00;;;;;;5029473;28;20430;-75
2023/08/17 08:31:25;;;;;;;13.85;6.93;;;33.60;1.00;;;;;;5026967;28;20938;-75
2023/08/17 08:33:52;;;;;;;14.17;6.17;;;33.90;1.00;;;;;;5042366;28;20418;-75
2023/08/17 08:36:18;;;;;;;15.18;7.00;;;34.20;99.90;;;;;;5031722;28;21021;-75
2023/08/17 08:38:44;;;;;;;12.57;6.75;;;34.20;99.90;;;;;;5031203;28;20506;-75
2023/08/17 08:41:11;;;;;;;14.10;7.20;;;35.40;99.90;;;;;;5039160;28;20411;-76
2023/08/17 08:43:36;;;;;;;13.63;7.30;;;35.60;99.90;;;;;;5034035;28;20407;-75
2023/08/17 08:46:02;;;;;;;12.63;7.27;;;36.10;99.90;;;;;;5043480;28;20405;-77
2023/08/17 08:48:29;;;;;;;14.23;7.30;;;36.20;99.90;;;;;;5046468;28;20451;-75
2023/08/17 08:50:55;;;;;;;15.27;8.05;;;35.70;99.90;;;;;;5033489;28;20423;-75
2023/08/17 08:53:28;;;;;;;14.70;7.53;;;36.00;99.90;;;;;;5041653;28;20471;-75
2023/08/17 08:55:57;;;;;;;15.77;8.17;;;35.50;99.90;;;;;;5039363;28;20413;-75
2023/08/17 08:58:25;;;;;;;14.38;7.60;;;34.70;99.90;;;;;;5036468;28;20429;-73
2023/08/17 09:00:51;;;;;;;14.00;6.82;;;34.10;99.90;;;;;;5036207;28;20433;-73
2023/08/17 09:03:20;;;;;;;16.20;8.63;;;33.90;99.90;;;;;;5036443;28;20398;-73
2023/08/17 09:05:48;;;;;;;14.10;7.20;;;35.10;99.90;;;;;;5038543;28;20395;-73
2023/08/17 09:08:15;;;;;;;14.80;7.93;;;35.80;99.90;;;;;;5026207;28;20434;-73
2023/08/17 09:10:41;;;;;;;13.07;7.60;;;36.70;99.90;;;;;;5026874;28;20398;-73
2023/08/17 09:13:07;;;;;;;13.38;7.57;;;36.80;99.90;;;;;;5029614;28;20452;-73
2023/08/17 09:15:33;;;;;;;13.35;6.93;;;36.70;99.90;;;;;;5046781;28;21086;-73
2023/08/17 09:17:59;;;;;;;12.07;6.43;;;36.60;99.90;;;;;;5046270;28;20397;-73
2023/08/17 09:20:39;;;;;;;12.88;7.10;;;36.90;99.90;;;;;;5047164;28;20407;-73
2023/08/17 09:23:10;;;;;;;14.82;7.10;;;37.10;99.90;;;;;;5047487;28;20398;-73
2023/08/17 09:25:39;;;;;;;10.30;5.77;;;36.80;99.90;;;;;;5046804;28;20873;-74
2023/08/17 09:28:12;;;;;;;12.80;6.93;;;37.30;99.90;;;;;;5046719;28;20451;-73
2023/08/17 09:30:59;;;;;;;14.18;7.53;;;37.00;99.90;;;;;;5046310;28;20491;-73
2023/08/17 09:33:28;;;;;;;12.73;7.53;;;36.00;99.90;;;;;;5046293;28;20975;-73
2023/08/17 09:35:56;;;;;;;12.27;6.75;;;35.90;99.90;;;;;;5046873;28;20389;-73
2023/08/17 09:38:22;;;;;;;14.83;8.37;;;36.20;99.90;;;;;;5046612;28;20400;-73
2023/08/17 09:40:48;;;;;;;12.67;6.70;;;36.70;99.90;;;;;;5047101;28;20401;-73
2023/08/17 09:43:18;;;;;;;12.48;6.60;;;37.10;99.90;;;;;;5050199;28;20385;-73
2023/08/17 09:45:47;;;;;;;17.15;7.50;;;37.40;99.90;;;;;;5050081;28;20390;-73
2023/08/17 09:48:18;;;;;;;13.65;6.25;;;37.20;99.90;;;;;;5050370;28;20420;-73
2023/08/17 09:50:44;;;;;;;16.00;7.13;;;37.20;99.90;;;;;;5050396;28;20392;-73
2023/08/17 09:53:14;;;;;;;15.98;6.72;;;37.60;99.90;;;;;;5049922;28;20397;-73
2023/08/17 09:55:42;;;;;;;13.18;7.60;;;36.80;99.90;;;;;;5049971;28;20382;-73
2023/08/17 09:58:08;;;;;;;12.70;7.00;;;35.60;99.90;;;;;;5049629;28;20382;-72
2023/08/17 10:00:34;;;;;;;13.20;7.17;;;34.60;99.90;;;;;;5050674;28;20425;-72
2023/08/17 10:03:02;;;;;;;14.70;7.60;;;33.80;99.90;;;;;;5050077;28;20382;-72
2023/08/17 10:05:32;;;;;;;14.77;8.15;;;34.40;99.90;;;;;;5049800;28;20397;-72
2023/08/17 10:08:00;;;;;;;13.60;6.53;;;34.90;99.90;;;;;;5049772;28;20535;-73
2023/08/17 10:10:27;;;;;;;13.60;7.78;;;35.80;99.90;;;;;;5049793;28;20781;-73
2023/08/17 10:13:23;;;;;;;14.20;7.80;;;36.00;99.90;;;;;;5049063;28;20775;-72
2023/08/17 10:16:18;;;;;;;14.60;7.30;;;36.00;99.90;;;;;;5029524;28;20445;-72
2023/08/17 10:18:52;;;;;;;13.27;6.20;;;35.70;99.90;;;;;;5028111;28;20495;-73
2023/08/17 10:21:27;;;;;;;12.85;6.80;;;35.30;99.90;;;;;;5029761;28;20391;-72
2023/08/17 10:23:54;;;;;;;18.88;7.53;;;34.90;99.90;;;;;;5028447;28;20395;-72
2023/08/17 10:26:20;;;;;;;13.60;6.32;;;35.10;99.90;;;;;;5029580;28;20395;-71
2023/08/17 10:28:47;;;;;;;13.40;7.05;;;35.30;99.90;;;;;;5029483;28;20891;-72
2023/08/17 10:31:14;;;;;;;13.85;6.90;;;34.40;99.90;;;;;;5029713;28;20510;-72
2023/08/17 10:33:43;;;;;;;13.00;7.20;;;33.50;99.90;;;;;;5029617;28;20386;-74
2023/08/17 10:36:09;;;;;;;13.25;6.95;;;33.60;99.90;;;;;;5029875;28;20383;-74
2023/08/17 10:38:35;;;;;;;11.70;6.47;;;33.20;99.90;;;;;;5029864;28;20449;-74
2023/08/17 10:41:14;;;;;;;14.07;7.50;;;33.00;99.90;;;;;;5029434;28;20406;-74
2023/08/17 10:43:58;;;;;;;16.17;7.85;;;32.50;99.90;;;;;;5029251;28;20430;-73
2023/08/17 10:46:39;;;;;;;15.60;8.30;;;32.10;99.90;;;;;;5029218;28;20955;-72
2023/08/17 10:49:06;;;;;;;12.43;7.10;;;31.70;99.90;;;;;;5029918;28;20922;-72
2023/08/17 10:51:32;;;;;;;14.60;7.20;;;31.80;99.90;;;;;;5029491;28;20395;-72
2023/08/17 10:54:00;;;;;;;15.63;8.43;;;32.30;99.90;;;;;;5028863;28;20486;-73
2023/08/17 10:56:28;;;;;;;13.00;6.65;;;32.40;99.90;;;;;;5029406;28;20474;-72
2023/08/17 10:58:53;;;;;;;14.55;7.00;;;32.70;99.90;;;;;;5029217;28;20409;-73
2023/08/17 11:01:36;;;;;;;18.60;9.00;;;33.10;99.90;;;;;;5028796;28;20406;-73
2023/08/17 11:04:15;;;;;;;16.70;8.13;;;32.90;99.90;;;;;;5031572;28;20379;-73
2023/08/17 11:06:45;;;;;;;15.93;8.05;;;32.70;99.90;;;;;;5029099;28;20391;-72
2023/08/17 11:09:11;;;;;;;14.00;8.00;;;32.50;99.90;;;;;;5029077;28;20503;-72
2023/08/17 11:11:37;;;;;;;19.80;9.90;;;32.60;99.90;;;;;;5028574;28;20395;-73
2023/08/17 11:14:03;;;;;;;16.27;8.13;;;32.90;99.90;;;;;;5039789;28;20882;-73
2023/08/17 11:16:28;;;;;;;16.73;9.85;;;32.80;99.90;;;;;;5048930;28;20809;-72
2023/08/17 11:18:57;;;;;;;15.87;8.73;;;32.70;99.90;;;;;;5048696;28;20885;-72
2023/08/17 11:21:23;;;;;;;15.10;8.00;;;32.90;99.90;;;;;;5049363;28;20417;-72
2023/08/17 11:23:49;;;;;;;14.07;7.00;;;32.70;99.90;;;;;;5048686;28;20390;-72
2023/08/17 11:26:18;;;;;;;14.30;7.37;;;33.10;99.90;;;;;;5048665;28;20474;-72
2023/08/17 11:28:44;;;;;;;14.63;7.53;;;33.50;99.90;;;;;;5050130;28;20427;-72
2023/08/17 11:31:12;;;;;;;14.20;7.30;;;33.80;99.90;;;;;;5048321;28;21274;-72
2023/08/17 11:33:39;;;;;;;14.55;7.10;;;33.80;99.90;;;;;;5048884;28;20484;-73
2023/08/17 11:36:07;;;;;;;14.80;6.80;;;34.20;99.90;;;;;;5047543;28;20885;-73
2023/08/17 11:38:33;;;;;;;13.43;6.90;;;34.10;99.90;;;;;;5048919;28;20397;-73
2023/08/17 11:40:59;;;;;;;14.57;7.43;;;33.90;99.90;;;;;;5047821;28;20378;-73
2023/08/17 11:43:26;;;;;;;12.45;6.43;;;33.40;99.90;;;;;;5048149;28;21107;-72
2023/08/17 11:45:52;;;;;;;13.95;7.07;;;33.20;99.90;;;;;;5047941;28;20903;-75
2023/08/17 11:48:21;;;;;;;15.57;7.07;;;33.30;99.90;;;;;;5048295;28;20417;-75
2023/08/17 11:50:47;;;;;;;14.02;6.57;;;33.50;99.90;;;;;;5048060;28;20425;-75
2023/08/17 11:53:13;;;;;;;11.93;6.30;;;33.80;99.90;;;;;;5047876;28;20400;-74
2023/08/17 11:55:38;;;;;;;14.07;7.30;;;33.90;99.90;;;;;;5047926;28;20381;-75
2023/08/17 11:58:04;;;;;;;13.00;6.10;;;33.50;99.90;;;;;;5048455;28;20758;-72
2023/08/17 12:00:46;;;;;;;11.05;5.28;;;33.00;99.90;;;;;;5046521;28;20377;-72
2023/08/17 12:03:15;;;;;;;14.00;6.20;;;32.80;99.90;;;;;;5048180;28;20431;-72
2023/08/17 12:05:41;;;;;;;11.87;5.70;;;32.60;99.90;;;;;;5047210;28;20390;-72
2023/08/17 12:08:08;;;;;;;11.05;5.60;;;32.30;99.90;;;;;;5047984;28;20421;-72
2023/08/17 12:10:34;;;;;;;12.10;5.40;;;32.30;99.90;;;;;;5028312;28;20421;-72
2023/08/17 12:13:00;;;;;;;10.13;5.55;;;32.90;99.90;;;;;;5028778;28;20398;-72
2023/08/17 12:15:31;;;;;;;11.13;5.20;;;33.00;99.90;;;;;;5047579;28;20747;-72
2023/08/17 12:17:59;;;;;;;10.30;4.60;;;32.90;99.90;;;;;;5047459;28;20373;-72
2023/08/17 12:20:24;;;;;;;10.35;4.50;;;32.70;99.90;;;;;;5047624;28;20443;-72
2023/08/17 12:22:50;;;;;;;9.27;4.50;;;32.30;99.90;;;;;;5047324;28;20390;-72
2023/08/17 12:25:16;;;;;;;9.00;4.25;;;32.10;99.90;;;;;;5046993;28;20780;-72
2023/08/17 12:27:41;;;;;;;9.00;4.47;;;32.10;99.90;;;;;;5047429;28;20421;-72
2023/08/17 12:30:24;;;;;;;10.83;4.70;;;32.00;99.90;;;;;;5046907;28;20413;-72
2023/08/17 12:32:50;;;;;;;11.82;5.40;;;32.10;99.90;;;;;;5047168;28;20472;-72
2023/08/17 12:35:16;;;;;;;9.33;4.50;;;32.50;99.90;;;;;;5047065;28;20770;-72
2023/08/17 12:37:41;;;;;;;11.70;4.67;;;32.50;99.90;;;;;;5047221;28;20427;-72